Hovedside
METAR-TAF:

METAR-TAF

Lufthavner :

Bornholms lufthavn

Rønne, Danmark

breddegrad: 55-04N, lengdegrad: 014-45E, høyde over havet: 16 m

Gjeldene værobservasjon

Denne rapporten ble laget for 17 minutter siden, klokken 14:20 UTC
Vind 9 kt fra Nord-nordvest
Temperatur 19°C
Luftfuktighet 94%
Trykk 1013 hPa
Sikt 10 km eller mer
lett regn

METAR: EKRN 181420Z AUTO 34009KT 9999NDV -RA SCT005/// BKN037/// OVC073/// 19/18 Q1013

Tid: 16:37 (14:37 UTC)

Varsel

Denne rapporten ble laget for 29 minutter siden, klokken 14:08 UTC
Varsel gyldig fra 18. klokken 15 UTC til 18. klokken 22 UTC
Vind 10 kt fra Nordvest
Sikt 10 km eller mer
Brutte skyer i en høyde av 3500 ft
lett regn
Midlertidig
fra 18. klokken 15 UTC til 18. klokken 22 UTC
Sikt: 4000 m
Brutte skyer i en høyde av 800 ft
regn

TAF: EKRN 181408Z 1815/1822 32010KT 9999 -RA BKN035 TEMPO 1815/1822 4000 RA BKN008

Værobservasjoner og værvarsel for over 4000 flyplasser (METAR- og TAF-rapporter).

Tilgjengelige stasjoner er representert av de røde og gule prikkene på kartet.

Hold musepekeren over prikken for å se navnet på stasjonen.

Klikk så for å se værobservasjoner og -varsler.

For å forandre kartet kan du klikke på den grønne knappen med svart kryss for å zoome inn, på den grønne knappen med strek for å zoome ut, eller på de grønne pilene for å se tilstøtende kart.


METAR-TAF: